Time;durP1;ratioP1;P1;durP2;ratioP2;P2;SDS_P1;SDS_P2;PMS_P1;PMS_P2;Temp;Humidity;BMP_temperature;BMP_pressure;BME280_temperature;BME280_humidity;BME280_pressure;Samples;Min_cycle;Max_cycle;Signal;HPM_P1;HPM_P2
2023/08/13 00:01:05;;;;;;;;;;;20.10;99.90;;;;;;5026930;28;19929;-70
2023/08/13 00:03:32;;;;;;;;;;;19.90;99.90;;;;;;5026580;28;19972;-71
2023/08/13 00:05:58;;;;;;;;;;;19.90;99.90;;;;;;5025885;28;19921;-71
2023/08/13 00:08:25;;;;;;;;;;;19.90;99.90;;;;;;5026841;28;19921;-70
2023/08/13 00:10:52;;;;;;;;;;;19.90;99.90;;;;;;5026667;28;19988;-70
2023/08/13 00:13:19;;;;;;;;;;;19.90;99.90;;;;;;5026409;28;19921;-71
2023/08/13 00:15:46;;;;;;;;;;;19.90;99.90;;;;;;5026472;28;19922;-71
2023/08/13 00:18:13;;;;;;;;;;;19.80;99.90;;;;;;5025700;28;19928;-70
2023/08/13 00:20:39;;;;;;;;;;;19.80;99.90;;;;;;5026287;28;19925;-70
2023/08/13 00:23:06;;;;;;;;;;;19.80;99.90;;;;;;5026539;28;19921;-71
2023/08/13 00:25:32;;;;;;;;;;;19.70;99.90;;;;;;5026156;28;19985;-70
2023/08/13 00:27:59;;;;;;;;;;;19.70;99.90;;;;;;5025890;28;20117;-71
2023/08/13 00:30:27;;;;;;;;;;;19.70;99.90;;;;;;5026405;28;19928;-69
2023/08/13 00:32:54;;;;;;;;;;;19.70;99.90;;;;;;5026429;28;19952;-71
2023/08/13 00:35:20;;;;;;;;;;;19.60;99.90;;;;;;5026264;28;19922;-70
2023/08/13 00:37:47;;;;;;;;;;;19.60;99.90;;;;;;5025523;28;19949;-70
2023/08/13 00:40:13;;;;;;;;;;;19.50;99.90;;;;;;5025990;28;19928;-71
2023/08/13 00:42:40;;;;;;;;;;;19.50;99.90;;;;;;5025801;28;20176;-69
2023/08/13 00:45:07;;;;;;;;;;;19.50;99.90;;;;;;5025741;28;19921;-70
2023/08/13 00:47:35;;;;;;;;;;;19.40;99.90;;;;;;5025116;28;19921;-70
2023/08/13 00:50:03;;;;;;;;;;;19.40;99.90;;;;;;5026044;28;19949;-70
2023/08/13 00:52:30;;;;;;;;;;;19.40;99.90;;;;;;5025399;28;19922;-70
2023/08/13 00:54:56;;;;;;;;;;;19.40;99.90;;;;;;5025506;28;19992;-71
2023/08/13 00:57:23;;;;;;;;;;;19.40;99.90;;;;;;5025123;28;19984;-71
2023/08/13 00:59:50;;;;;;;;;;;19.40;99.90;;;;;;5025649;28;19921;-70
2023/08/13 01:02:17;;;;;;;;;;;19.40;99.90;;;;;;5025450;28;19992;-70
2023/08/13 01:04:45;;;;;;;;;;;19.30;99.90;;;;;;5025387;28;19948;-71
2023/08/13 01:07:13;;;;;;;;;;;19.30;99.90;;;;;;5024596;28;19989;-71
2023/08/13 01:09:44;;;;;;;;;;;19.30;99.90;;;;;;5025525;28;19921;-71
2023/08/13 01:12:16;;;;;;;;;;;19.30;99.90;;;;;;5025501;28;19948;-71
2023/08/13 01:14:47;;;;;;;;;;;19.20;99.90;;;;;;5025121;28;19998;-69
2023/08/13 01:17:15;;;;;;;;;;;19.20;99.90;;;;;;5023977;28;20204;-70
2023/08/13 01:19:42;;;;;;;;;;;19.20;99.90;;;;;;5025109;28;19984;-70
2023/08/13 01:22:10;;;;;;;;;;;19.20;99.90;;;;;;5025217;28;20029;-71
2023/08/13 01:24:38;;;;;;;;;;;19.20;99.90;;;;;;5025097;28;19922;-70
2023/08/13 01:27:07;;;;;;;;;;;19.20;99.90;;;;;;5024223;28;19927;-71
2023/08/13 01:29:38;;;;;;;;;;;19.10;99.90;;;;;;5022920;28;19997;-69
2023/08/13 01:32:07;;;;;;;;;;;19.10;99.90;;;;;;5025110;28;19922;-70
2023/08/13 01:34:34;;;;;;;;;;;19.10;99.90;;;;;;5025119;28;19928;-71
2023/08/13 01:37:01;;;;;;;;;;;19.10;99.90;;;;;;5024024;28;20300;-71
2023/08/13 01:39:28;;;;;;;;;;;19.00;99.90;;;;;;5024993;28;19980;-70
2023/08/13 01:41:56;;;;;;;;;;;19.00;99.90;;;;;;5024815;28;20160;-71
2023/08/13 01:44:23;;;;;;;;;;;19.00;99.90;;;;;;5024767;28;19989;-70
2023/08/13 01:46:50;;;;;;;;;;;19.00;99.90;;;;;;5024072;28;19929;-71
2023/08/13 01:49:19;;;;;;;;;;;19.00;99.90;;;;;;5005394;28;19953;-70
2023/08/13 01:51:45;;;;;;;;;;;18.90;99.90;;;;;;5005396;28;19921;-71
2023/08/13 01:54:13;;;;;;;;;;;19.00;99.90;;;;;;5005206;28;19926;-70
2023/08/13 01:56:40;;;;;;;;;;;18.90;99.90;;;;;;5004656;28;19930;-70
2023/08/13 01:59:09;;;;;;;;;;;18.90;99.90;;;;;;5005362;28;20128;-70
2023/08/13 02:01:35;;;;;;;;;;;18.90;99.90;;;;;;5005271;28;19928;-71
2023/08/13 02:04:02;;;;;;;;;;;18.90;99.90;;;;;;5014367;28;19989;-71
2023/08/13 02:06:30;;;;;;;;;;;18.90;99.90;;;;;;5024092;28;19927;-71
2023/08/13 02:08:56;;;;;;;;;;;18.80;99.90;;;;;;5024724;28;19922;-71
2023/08/13 02:11:23;;;;;;;;;;;18.80;99.90;;;;;;5024577;28;19980;-70
2023/08/13 02:13:50;;;;;;;;;;;18.80;99.90;;;;;;5024558;28;19922;-71
2023/08/13 02:16:18;;;;;;;;;;;18.70;99.90;;;;;;5024543;28;20094;-71
2023/08/13 02:18:44;;;;;;;;;;;18.60;99.90;;;;;;5024112;28;19921;-71
2023/08/13 02:21:11;;;;;;;;;;;18.60;99.90;;;;;;5024429;28;20126;-71
2023/08/13 02:23:37;;;;;;;;;;;18.50;99.90;;;;;;5024300;28;19921;-71
2023/08/13 02:26:04;;;;;;;;;;;18.50;99.90;;;;;;5024095;28;19928;-71
2023/08/13 02:28:31;;;;;;;;;;;18.50;99.90;;;;;;5024444;28;19928;-70
2023/08/13 02:31:00;;;;;;;;;;;18.50;99.90;;;;;;5025859;28;19927;-71
2023/08/13 02:33:28;;;;;;;;;;;18.50;99.90;;;;;;5028772;28;19963;-70
2023/08/13 02:35:55;;;;;;;;;;;18.40;99.90;;;;;;5028188;28;20026;-71
2023/08/13 02:38:21;;;;;;;;;;;18.40;99.90;;;;;;5027867;28;19927;-70
2023/08/13 02:40:48;;;;;;;;;;;18.40;99.90;;;;;;5027944;28;20191;-71
2023/08/13 02:43:15;;;;;;;;;;;18.50;99.90;;;;;;5028533;28;19990;-71
2023/08/13 02:45:41;;;;;;;;;;;18.40;99.90;;;;;;5027942;28;19947;-71
2023/08/13 02:48:08;;;;;;;;;;;18.40;99.90;;;;;;5027680;28;19984;-71
2023/08/13 02:50:36;;;;;;;;;;;18.40;99.90;;;;;;5028233;28;20224;-71
2023/08/13 02:53:02;;;;;;;;;;;18.30;99.90;;;;;;5028093;28;19984;-71
2023/08/13 02:55:29;;;;;;;;;;;18.40;99.90;;;;;;5027896;28;19922;-71
2023/08/13 02:57:55;;;;;;;;;;;18.30;99.90;;;;;;5027385;28;19922;-71
2023/08/13 03:00:22;;;;;;;;;;;18.30;99.90;;;;;;5027885;28;20145;-71
2023/08/13 03:02:49;;;;;;;;;;;18.30;99.90;;;;;;5027980;28;19921;-71
2023/08/13 03:05:15;;;;;;;;;;;18.30;99.90;;;;;;5028017;28;19928;-71
2023/08/13 03:07:43;;;;;;;;;;;18.30;99.90;;;;;;5027148;28;19921;-71
2023/08/13 03:10:10;;;;;;;;;;;18.30;99.90;;;;;;5028251;28;19927;-71
2023/08/13 03:12:36;;;;;;;;;;;18.30;99.90;;;;;;5027906;28;19984;-71
2023/08/13 03:15:03;;;;;;;;;;;18.30;99.90;;;;;;5027568;28;19927;-72
2023/08/13 03:17:30;;;;;;;;;;;18.30;99.90;;;;;;5027211;28;19927;-71
2023/08/13 03:19:58;;;;;;;;;;;18.30;99.90;;;;;;5027835;28;19921;-71
2023/08/13 03:22:25;;;;;;;;;;;18.20;99.90;;;;;;5027509;28;20213;-71
2023/08/13 03:24:53;;;;;;;;;;;18.20;99.90;;;;;;5027545;28;20176;-71
2023/08/13 03:27:20;;;;;;;;;;;18.20;99.90;;;;;;5026869;28;19928;-71
2023/08/13 03:29:46;;;;;;;;;;;18.10;99.90;;;;;;5027235;28;19921;-71
2023/08/13 03:32:13;;;;;;;;;;;18.10;99.90;;;;;;5026344;28;19981;-72
2023/08/13 03:34:39;;;;;;;;;;;18.10;99.90;;;;;;5026693;28;19980;-71
2023/08/13 03:37:06;;;;;;;;;;;18.10;99.90;;;;;;5026454;28;19929;-71
2023/08/13 03:39:32;;;;;;;;;;;18.00;99.90;;;;;;5027558;28;20009;-71
2023/08/13 03:42:00;;;;;;;;;;;18.00;99.90;;;;;;5026522;28;19928;-71
2023/08/13 03:44:27;;;;;;;;;;;18.00;99.90;;;;;;5027263;28;20213;-70
2023/08/13 03:46:54;;;;;;;;;;;17.90;99.90;;;;;;5026087;28;19989;-71
2023/08/13 03:49:20;;;;;;;;;;;17.80;99.90;;;;;;5026819;28;19984;-70
2023/08/13 03:51:47;;;;;;;;;;;17.80;99.90;;;;;;5027318;28;19961;-71
2023/08/13 03:54:13;;;;;;;;;;;17.80;99.90;;;;;;5026985;28;20201;-71
2023/08/13 03:56:40;;;;;;;;;;;17.80;99.90;;;;;;5026556;28;19922;-71
2023/08/13 03:59:08;;;;;;;;;;;17.80;99.90;;;;;;5026808;28;19922;-71
2023/08/13 04:01:35;;;;;;;;;;;17.80;99.90;;;;;;5026963;28;19984;-71
2023/08/13 04:04:01;;;;;;;;;;;17.80;99.90;;;;;;5026892;28;19928;-71
2023/08/13 04:06:28;;;;;;;;;;;17.80;99.90;;;;;;5026629;28;20124;-70
2023/08/13 04:08:54;;;;;;;;;;;17.80;99.90;;;;;;5026043;28;19992;-71
2023/08/13 04:11:21;;;;;;;;;;;17.80;99.90;;;;;;5026690;28;19921;-70
2023/08/13 04:13:48;;;;;;;;;;;17.80;99.90;;;;;;5026585;28;19984;-70
2023/08/13 04:16:15;;;;;;;;;;;17.70;99.90;;;;;;5026349;28;19927;-70
2023/08/13 04:18:42;;;;;;;;;;;17.70;99.90;;;;;;5025560;28;19921;-71
2023/08/13 04:21:09;;;;;;;;;;;17.60;99.90;;;;;;5026157;28;19984;-73
2023/08/13 04:23:35;;;;;;;;;;;17.60;99.90;;;;;;5026437;28;19928;-71
2023/08/13 04:26:02;;;;;;;;;;;17.60;99.90;;;;;;5025790;28;19921;-70
2023/08/13 04:28:29;;;;;;;;;;;17.70;99.90;;;;;;5025430;28;20185;-71
2023/08/13 04:30:57;;;;;;;;;;;17.60;99.90;;;;;;5024101;28;19921;-71
2023/08/13 04:33:25;;;;;;;;;;;17.70;99.90;;;;;;5025978;28;19922;-71
2023/08/13 04:35:53;;;;;;;;;;;17.70;99.90;;;;;;5025608;28;20202;-71
2023/08/13 04:38:19;;;;;;;;;;;17.70;99.90;;;;;;5025328;28;19945;-71
2023/08/13 04:40:47;;;;;;;;;;;17.70;99.90;;;;;;5025798;28;19984;-73
2023/08/13 04:43:13;;;;;;;;;;;17.70;99.90;;;;;;5025566;28;20209;-71
2023/08/13 04:45:40;;;;;;;;;;;17.70;99.90;;;;;;5025737;28;19984;-70
2023/08/13 04:48:07;;;;;;;;;;;17.70;99.90;;;;;;5024659;28;19921;-69
2023/08/13 04:50:35;;;;;;;;;;;17.70;99.90;;;;;;5025784;28;19956;-70
2023/08/13 04:53:02;;;;;;;;;;;17.60;99.90;;;;;;5025744;28;19921;-71
2023/08/13 04:55:28;;;;;;;;;;;17.60;99.90;;;;;;5025257;28;19922;-70
2023/08/13 04:57:56;;;;;;;;;;;17.70;99.90;;;;;;5025317;28;19928;-69
2023/08/13 05:00:23;;;;;;;;;;;17.70;99.90;;;;;;5017625;28;19985;-71
2023/08/13 05:02:49;;;;;;;;;;;17.70;99.90;;;;;;5025599;28;19928;-70
2023/08/13 05:05:16;;;;;;;;;;;17.70;99.90;;;;;;5025467;28;20116;-71
2023/08/13 05:07:44;;;;;;;;;;;17.80;99.90;;;;;;5024749;28;19928;-71
2023/08/13 05:10:10;;;;;;;;;;;17.80;99.90;;;;;;5025353;28;19928;-70
2023/08/13 05:12:37;;;;;;;;;;;17.80;99.90;;;;;;5025368;28;19976;-71
2023/08/13 05:15:05;;;;;;;;;;;17.80;99.90;;;;;;5024959;28;19964;-70
2023/08/13 05:17:36;;;;;;;;;;;17.80;99.90;;;;;;5024490;28;19944;-71
2023/08/13 05:20:03;;;;;;;;;;;17.90;99.90;;;;;;5025184;28;19964;-70
2023/08/13 05:22:30;;;;;;;;;;;17.90;99.90;;;;;;5025267;28;19921;-73
2023/08/13 05:24:58;;;;;;;;;;;17.90;99.90;;;;;;5024562;28;19982;-71
2023/08/13 05:27:25;;;;;;;;;;;18.00;99.90;;;;;;5024161;28;20209;-71
2023/08/13 05:29:53;;;;;;;;;;;18.00;99.90;;;;;;5022708;28;19974;-71
2023/08/13 05:32:22;;;;;;;;;;;18.00;99.90;;;;;;5024945;28;19997;-69
2023/08/13 05:34:48;;;;;;;;;;;18.10;99.90;;;;;;5024505;28;20217;-71
2023/08/13 05:37:15;;;;;;;;;;;18.10;99.90;;;;;;5023878;28;19921;-71
2023/08/13 05:39:42;;;;;;;;;;;18.10;99.90;;;;;;5025024;28;19980;-71
2023/08/13 05:42:10;;;;;;;;;;;18.10;99.90;;;;;;5024648;28;20000;-69
2023/08/13 05:44:36;;;;;;;;;;;18.20;99.90;;;;;;5005077;28;19985;-69
2023/08/13 05:47:03;;;;;;;;;;;18.20;99.90;;;;;;5004074;28;19922;-70
2023/08/13 05:49:30;;;;;;;;;;;18.20;99.90;;;;;;5005131;28;19997;-71
2023/08/13 05:51:56;;;;;;;;;;;18.30;99.90;;;;;;5005015;28;19989;-71
2023/08/13 05:54:23;;;;;;;;;;;18.30;99.90;;;;;;5005040;28;20210;-70
2023/08/13 05:56:49;;;;;;;;;;;18.40;99.90;;;;;;5004471;28;19930;-71
2023/08/13 05:59:18;;;;;;;;;;;18.40;99.90;;;;;;5004946;28;19944;-71
2023/08/13 06:01:44;;;;;;;;;;;18.50;99.90;;;;;;5004961;28;19926;-71
2023/08/13 06:04:11;;;;;;;;;;;18.60;99.90;;;;;;5004331;28;19990;-70
2023/08/13 06:06:37;;;;;;;;;;;18.60;99.90;;;;;;5004524;28;19922;-70
2023/08/13 06:09:05;;;;;;;;;;;18.70;99.90;;;;;;5005582;28;20188;-71
2023/08/13 06:11:32;;;;;;;;;;;18.80;99.90;;;;;;5024673;28;20152;-71
2023/08/13 06:13:59;;;;;;;;;;;18.90;99.90;;;;;;5024641;28;20194;-71
2023/08/13 06:16:27;;;;;;;;;;;18.90;99.90;;;;;;5024620;28;20209;-71
2023/08/13 06:18:53;;;;;;;;;;;19.00;99.90;;;;;;5024126;28;20153;-70
2023/08/13 06:21:20;;;;;;;;;;;19.00;99.90;;;;;;5024465;28;19922;-70
2023/08/13 06:23:46;;;;;;;;;;;19.10;99.90;;;;;;5024366;28;19928;-71
2023/08/13 06:26:13;;;;;;;;;;;19.10;99.90;;;;;;5023986;28;19984;-70
2023/08/13 06:28:40;;;;;;;;;;;19.20;99.90;;;;;;5023822;28;20108;-70
2023/08/13 06:31:12;;;;;;;;;;;19.30;99.90;;;;;;5021503;28;19921;-70
2023/08/13 06:33:40;;;;;;;;;;;19.30;99.90;;;;;;5023053;28;19922;-71
2023/08/13 06:36:07;;;;;;;;;;;19.30;99.90;;;;;;5024317;28;19928;-71
2023/08/13 06:38:34;;;;;;;;;;;19.30;99.90;;;;;;5023639;28;19921;-71
2023/08/13 06:41:05;;;;;;;;;;;19.40;99.90;;;;;;5024268;28;19921;-71
2023/08/13 06:43:32;;;;;;;;;;;19.40;99.90;;;;;;5024256;28;19921;-71
2023/08/13 06:45:59;;;;;;;;;;;19.40;99.90;;;;;;5024148;28;19984;-71
2023/08/13 06:48:27;;;;;;;;;;;19.50;99.90;;;;;;5023999;28;19947;-71
2023/08/13 06:50:58;;;;;;;;;;;19.60;99.90;;;;;;5024034;28;19928;-70
2023/08/13 06:53:25;;;;;;;;;;;19.60;99.90;;;;;;5024057;28;19922;-71
2023/08/13 06:55:51;;;;;;;;;;;19.70;99.90;;;;;;5024102;28;19988;-72
2023/08/13 06:58:18;;;;;;;;;;;19.70;99.90;;;;;;5023667;28;19988;-71
2023/08/13 07:00:46;;;;;;;;;;;19.80;99.90;;;;;;5024299;28;19921;-70
2023/08/13 07:03:13;;;;;;;;;;;19.80;99.90;;;;;;5025252;28;19993;-71
2023/08/13 07:05:40;;;;;;;;;;;19.80;99.90;;;;;;5025124;28;19928;-70
2023/08/13 07:08:09;;;;;;;;;;;19.80;99.90;;;;;;5023573;28;19921;-70
2023/08/13 07:10:36;;;;;;;;;;;19.90;99.90;;;;;;5024489;28;20211;-71
2023/08/13 07:13:02;;;;;;;;;;;19.90;99.90;;;;;;5024192;28;19949;-70
2023/08/13 07:15:29;;;;;;;;;;;20.00;99.90;;;;;;5024664;28;20109;-71
2023/08/13 07:17:56;;;;;;;;;;;20.10;99.90;;;;;;5027200;28;19928;-70
2023/08/13 07:20:22;;;;;;;;;;;20.10;99.90;;;;;;5027363;28;19928;-70
2023/08/13 07:22:49;;;;;;;;;;;20.20;99.90;;;;;;5027925;28;19921;-70
2023/08/13 07:25:17;;;;;;;;;;;20.20;99.90;;;;;;5027481;28;19988;-70
2023/08/13 07:27:44;;;;;;;;;;;20.20;99.90;;;;;;5027200;28;19921;-70
2023/08/13 07:30:11;;;;;;;;;;;20.20;99.90;;;;;;5024903;28;19921;-71
2023/08/13 07:32:40;;;;;;;;;;;20.30;99.90;;;;;;5027392;28;20148;-71
2023/08/13 07:35:07;;;;;;;;;;;20.30;99.90;;;;;;5027397;28;19989;-71
2023/08/13 07:37:34;;;;;;;;;;;20.30;99.90;;;;;;5026591;28;19921;-70
2023/08/13 07:40:00;;;;;;;;;;;20.30;99.90;;;;;;5027208;28;19988;-70
2023/08/13 07:42:28;;;;;;;;;;;20.30;99.90;;;;;;5027102;28;19929;-71
2023/08/13 07:44:55;;;;;;;;;;;20.40;99.90;;;;;;5026971;28;19959;-71
2023/08/13 07:47:21;;;;;;;;;;;20.40;99.90;;;;;;5026134;28;20232;-69
2023/08/13 07:49:48;;;;;;;;;;;20.40;99.90;;;;;;5026962;28;19988;-71
2023/08/13 07:52:15;;;;;;;;;;;20.40;99.90;;;;;;5026800;28;20004;-70
2023/08/13 07:54:41;;;;;;;;;;;20.50;99.90;;;;;;5026884;28;19949;-70
2023/08/13 07:57:08;;;;;;;;;;;20.50;99.90;;;;;;5026287;28;20210;-69
2023/08/13 07:59:36;;;;;;;;;;;20.50;99.90;;;;;;5027138;28;19988;-70
2023/08/13 08:02:03;;;;;;;;;;;20.50;99.90;;;;;;5026670;28;20176;-70
2023/08/13 08:04:29;;;;;;;;;;;20.50;99.90;;;;;;5026353;28;19922;-70
2023/08/13 08:06:56;;;;;;;;;;;20.50;99.90;;;;;;5025565;28;20115;-69
2023/08/13 08:09:23;;;;;;;;;;;20.50;99.90;;;;;;5026423;28;19921;-71
2023/08/13 08:11:50;;;;;;;;;;;20.50;99.90;;;;;;5026184;28;19921;-71
2023/08/13 08:14:16;;;;;;;;;;;20.50;99.90;;;;;;5025916;28;20146;-70
2023/08/13 08:16:44;;;;;;;;;;;20.50;99.90;;;;;;5025654;28;19993;-70
2023/08/13 08:19:11;;;;;;;;;;;20.60;99.90;;;;;;5026245;28;20000;-70
2023/08/13 08:21:37;;;;;;;;;;;20.50;99.90;;;;;;5026394;28;19992;-70
2023/08/13 08:24:04;;;;;;;;;;;20.60;99.90;;;;;;5025787;28;19964;-71
2023/08/13 08:26:32;;;;;;;;;;;20.60;99.90;;;;;;5024892;28;20158;-70
2023/08/13 08:28:58;;;;;;;;;;;20.60;99.90;;;;;;5025674;28;20114;-71
2023/08/13 08:31:25;;;;;;;;;;;20.60;99.90;;;;;;5026046;28;19921;-71
2023/08/13 08:33:53;;;;;;;;;;;20.60;99.90;;;;;;5025900;28;19921;-70
2023/08/13 08:36:20;;;;;;;;;;;20.60;99.90;;;;;;5025757;28;19921;-71
2023/08/13 08:38:46;;;;;;;;;;;20.60;99.90;;;;;;5025125;28;20084;-70
2023/08/13 08:41:13;;;;;;;;;;;20.60;99.90;;;;;;5025155;28;19922;-69
2023/08/13 08:43:40;;;;;;;;;;;20.60;99.90;;;;;;5018123;28;19922;-71
2023/08/13 08:46:07;;;;;;;;;;;20.60;99.90;;;;;;5005881;28;19997;-70
2023/08/13 08:48:34;;;;;;;;;;;20.60;99.90;;;;;;5007470;28;19957;-69
2023/08/13 08:51:02;;;;;;;;;;;20.70;99.90;;;;;;5025148;28;19992;-71
2023/08/13 08:53:29;;;;;;;;;;;20.70;99.90;;;;;;5025346;28;19921;-71
2023/08/13 08:55:56;;;;;;;;;;;20.70;99.90;;;;;;5025037;28;19928;-71
2023/08/13 08:58:22;;;;;;;;;;;20.80;99.90;;;;;;5024601;28;19926;-70
2023/08/13 09:00:49;;;;;;;;;;;20.80;99.90;;;;;;5023870;28;19925;-70
2023/08/13 09:03:16;;;;;;;;;;;20.80;99.90;;;;;;5009537;28;19921;-70
2023/08/13 09:05:42;;;;;;;;;;;20.90;99.90;;;;;;5023738;28;19922;-70
2023/08/13 09:08:13;;;;;;;;;;;21.00;99.90;;;;;;5019798;28;19944;-71
2023/08/13 09:10:41;;;;;;;;;;;21.00;99.90;;;;;;5024167;28;20213;-71
2023/08/13 09:13:08;;;;;;;;;;;21.00;99.90;;;;;;5024534;28;19921;-71
2023/08/13 09:15:35;;;;;;;;;;;21.10;99.90;;;;;;5024299;28;19968;-71
2023/08/13 09:18:02;;;;;;;;;;;21.10;99.90;;;;;;5023357;28;19928;-70
2023/08/13 09:20:29;;;;;;;;;;;21.20;99.90;;;;;;5023419;28;19989;-71
2023/08/13 09:22:59;;;;;;;;;;;21.20;99.90;;;;;;5025058;28;19988;-70
2023/08/13 09:25:28;;;;;;;;;;;21.30;99.90;;;;;;5024358;28;19984;-71
2023/08/13 09:27:55;;;;;;;;;;;21.30;99.90;;;;;;5024083;28;19952;-70
2023/08/13 09:30:28;;;;;;;;;;;21.40;99.90;;;;;;5025024;28;19989;-71
2023/08/13 09:32:54;;;;;;;;;;;21.40;99.90;;;;;;5024730;28;19989;-71
2023/08/13 09:35:21;;;;;;;;;;;21.40;99.90;;;;;;5024900;28;20109;-71
2023/08/13 09:37:48;;;;;;;;;;;21.50;99.90;;;;;;5024015;28;20168;-71
2023/08/13 09:40:14;;;;;;;;;;;21.60;99.90;;;;;;5023933;28;19922;-71
2023/08/13 09:42:43;;;;;;;;;;;21.70;99.90;;;;;;5024545;28;19936;-70
2023/08/13 09:45:11;;;;;;;;;;;21.80;99.90;;;;;;5004755;28;19928;-71
2023/08/13 09:47:40;;;;;;;;;;;21.90;99.90;;;;;;5004669;28;19922;-71
2023/08/13 09:50:08;;;;;;;;;;;22.00;99.90;;;;;;5007752;28;20000;-70
2023/08/13 09:52:35;;;;;;;;;;;22.00;99.90;;;;;;5024654;28;19956;-71
2023/08/13 09:55:08;;;;;;;;;;;21.90;99.90;;;;;;5024239;28;20175;-71
2023/08/13 09:57:35;;;;;;;;;;;22.00;99.90;;;;;;5024127;28;19922;-71
2023/08/13 10:00:06;;;;;;;;;;;21.90;99.90;;;;;;5023256;28;20922;-70
2023/08/13 10:02:33;;;;;;;;;;;21.90;99.90;;;;;;5014023;28;20114;-70
2023/08/13 10:05:00;;;;;;;;;;;21.90;99.90;;;;;;5024357;28;19961;-70
2023/08/13 10:07:27;;;;;;;;;;;22.00;99.90;;;;;;5023479;28;20978;-71
2023/08/13 10:09:54;;;;;;;;;;;22.00;99.90;;;;;;5005224;28;20229;-70
2023/08/13 10:12:21;;;;;;;;;;;22.00;99.90;;;;;;5024163;28;20206;-70
2023/08/13 10:14:48;;;;;;;;;;;22.10;99.90;;;;;;5023730;28;19984;-71
2023/08/13 10:17:17;;;;;;;;;;;22.10;99.90;;;;;;5023811;28;19921;-70
2023/08/13 10:19:46;;;;;;;;;;;22.10;99.90;;;;;;5023985;28;20055;-71
2023/08/13 10:22:13;;;;;;;;;;;22.20;99.90;;;;;;5024066;28;19993;-70
2023/08/13 10:24:42;;;;;;;;;;;22.10;99.90;;;;;;5023606;28;19933;-71
2023/08/13 10:27:12;;;;;;;;;;;22.10;99.90;;;;;;5023342;28;20259;-71
2023/08/13 10:29:45;;;;;;;;;;;22.10;99.90;;;;;;5021184;28;19928;-71
2023/08/13 10:32:13;;;;;;;;;;;22.10;99.90;;;;;;5023727;28;20256;-71
2023/08/13 10:34:41;;;;;;;;;;;22.20;99.90;;;;;;5023874;28;19981;-70
2023/08/13 10:37:15;;;;;;;;;;;22.30;99.90;;;;;;5022559;28;19993;-70
2023/08/13 10:39:43;;;;;;;;;;;22.30;99.90;;;;;;5022529;28;19976;-70
2023/08/13 10:42:28;;;;;;;;;;;22.40;99.90;;;;;;5023325;28;19984;-70
2023/08/13 10:45:01;;;;;;;;;;;22.60;99.90;;;;;;5006526;28;20268;-71
2023/08/13 10:47:38;;;;;;;;;;;22.60;99.90;;;;;;5007409;28;20209;-71
2023/08/13 10:50:06;;;;;;;;;;;22.70;99.90;;;;;;5016234;28;20413;-71
2023/08/13 10:52:33;;;;;;;;;;;22.70;99.90;;;;;;5027743;28;19956;-72
2023/08/13 10:55:00;;;;;;;;;;;22.80;99.90;;;;;;5025298;28;19921;-71
2023/08/13 10:57:27;;;;;;;;;;;22.90;99.90;;;;;;5026675;28;19928;-71
2023/08/13 10:59:55;;;;;;;;;;;23.00;99.90;;;;;;5027430;28;19926;-70
2023/08/13 11:02:24;;;;;;;;;;;23.20;99.90;;;;;;5027538;28;19996;-71
2023/08/13 11:04:51;;;;;;;;;;;23.40;99.90;;;;;;5027122;28;20268;-70
2023/08/13 11:07:20;;;;;;;;;;;23.60;99.90;;;;;;5026981;28;19985;-70
2023/08/13 11:09:48;;;;;;;;;;;23.80;99.90;;;;;;5027496;28;20236;-70
2023/08/13 11:12:15;;;;;;;;;;;23.80;99.90;;;;;;5027800;28;19921;-70
2023/08/13 11:14:42;;;;;;;;;;;23.90;99.90;;;;;;5027460;28;19996;-70
2023/08/13 11:17:09;;;;;;;;;;;24.00;99.90;;;;;;5026826;28;19984;-70
2023/08/13 11:19:35;;;;;;;;;;;24.10;99.90;;;;;;5026885;28;20133;-70
2023/08/13 11:22:02;;;;;;;;;;;24.10;99.90;;;;;;5027291;28;19921;-70
2023/08/13 11:24:32;;;;;;;;;;;24.30;99.90;;;;;;5027266;28;19921;-71
2023/08/13 11:26:59;;;;;;;;;;;24.40;99.90;;;;;;5026785;28;19929;-70
2023/08/13 11:29:25;;;;;;;;;;;24.50;99.90;;;;;;5027320;28;20131;-70
2023/08/13 11:31:52;;;;;;;;;;;24.60;99.90;;;;;;5026985;28;19921;-71
2023/08/13 11:34:19;;;;;;;;;;;24.60;99.90;;;;;;5025070;28;20094;-70
2023/08/13 11:36:46;;;;;;;;;;;24.50;99.90;;;;;;5025727;28;19921;-70
2023/08/13 11:39:13;;;;;;;;;;;24.50;99.90;;;;;;5026804;28;19921;-70
2023/08/13 11:41:41;;;;;;;;;;;24.50;99.90;;;;;;5026642;28;20108;-70
2023/08/13 11:44:10;;;;;;;;;;;24.40;99.90;;;;;;5026063;28;19929;-71
2023/08/13 11:46:53;;;;;;;;;;;24.40;99.90;;;;;;5026000;28;19925;-71
2023/08/13 11:49:19;;;;;;;;;;;24.40;99.90;;;;;;5026494;28;19956;-71
2023/08/13 11:51:46;;;;;;;;;;;24.40;99.90;;;;;;5026580;28;19928;-70
2023/08/13 11:54:12;;;;;;;;;;;24.40;99.90;;;;;;5025959;28;20221;-70
2023/08/13 11:56:40;;;;;;;;;;;24.40;99.90;;;;;;5025107;28;19961;-70
2023/08/13 11:59:08;;;;;;;;;;;24.40;99.90;;;;;;5020972;28;19922;-70
2023/08/13 12:01:35;;;;;;;;;;;24.40;99.90;;;;;;5024149;28;19988;-70
2023/08/13 12:04:04;;;;;;;;;;;24.40;99.90;;;;;;5026212;28;19953;-70
2023/08/13 12:06:30;;;;;;;;;;;24.40;99.90;;;;;;5025099;28;19989;-70
2023/08/13 12:08:59;;;;;;;;;;;24.50;99.90;;;;;;5025838;28;19928;-70
2023/08/13 12:11:26;;;;;;;;;;;24.50;99.90;;;;;;5006417;28;20109;-71
2023/08/13 12:13:54;;;;;;;;;;;24.60;99.90;;;;;;5008131;28;19949;-71
2023/08/13 12:16:20;;;;;;;;;;;24.80;99.90;;;;;;5023573;28;20289;-72
2023/08/13 12:18:47;;;;;;;;;;;24.90;99.90;;;;;;5024928;28;19948;-71
2023/08/13 12:21:14;;;;;;;;;;;25.10;99.90;;;;;;5025453;28;19988;-70
2023/08/13 12:23:40;;;;;;;;;;;25.40;99.90;;;;;;5025769;28;19925;-70
2023/08/13 12:26:07;;;;;;;;;;;25.60;99.90;;;;;;5025430;28;19948;-71
2023/08/13 12:28:34;;;;;;;;;;;25.80;99.90;;;;;;5024991;28;19988;-70
2023/08/13 12:31:01;;;;;;;;;;;25.90;99.90;;;;;;5023178;28;20209;-71
2023/08/13 12:33:28;;;;;;;;;;;26.00;99.90;;;;;;5015697;28;19922;-71
2023/08/13 12:35:55;;;;;;;;;;;26.00;99.90;;;;;;5025208;28;19928;-70
2023/08/13 12:38:22;;;;;;;;;;;26.00;99.90;;;;;;5024461;28;20213;-69
2023/08/13 12:40:48;;;;;;;;;;;25.80;99.90;;;;;;5025236;28;20272;-71
2023/08/13 12:43:15;;;;;;;;;;;25.80;99.90;;;;;;5025468;28;19928;-70
2023/08/13 12:45:41;;;;;;;;;;;25.70;99.90;;;;;;5005401;28;19953;-71
2023/08/13 12:48:09;;;;;;;;;;;25.70;99.90;;;;;;5020805;28;19928;-71
2023/08/13 12:50:36;;;;;;;;;;;25.70;99.90;;;;;;5024879;28;20173;-70
2023/08/13 12:53:03;;;;;;;;;;;25.80;99.90;;;;;;5025267;28;19921;-70
2023/08/13 12:55:29;;;;;;;;;;;25.90;99.90;;;;;;5024216;28;19928;-71
2023/08/13 12:57:56;;;;;;;;;;;26.10;99.90;;;;;;5023082;28;19922;-71
2023/08/13 13:00:23;;;;;;;;;;;26.40;99.90;;;;;;5025034;28;20142;-70
2023/08/13 13:02:49;;;;;;;;;;;26.60;99.90;;;;;;5025045;28;21016;-71
2023/08/13 13:05:17;;;;;;;;;;;26.70;99.90;;;;;;5024714;28;19927;-71
2023/08/13 13:07:44;;;;;;;;;;;26.80;99.90;;;;;;5024154;28;19921;-71
2023/08/13 13:10:10;;;;;;;;;;;26.80;99.90;;;;;;5024706;28;19928;-71
2023/08/13 13:12:38;;;;;;;;;;;26.70;99.90;;;;;;5023944;28;20201;-71
2023/08/13 13:15:05;;;;;;;;;;;26.70;99.90;;;;;;5024257;28;19985;-70
2023/08/13 13:17:32;;;;;;;;;;;26.70;99.90;;;;;;5023940;28;19925;-71
2023/08/13 13:19:58;;;;;;;;;;;26.80;99.90;;;;;;5024730;28;19984;-71
2023/08/13 13:22:26;;;;;;;;;;;26.90;99.90;;;;;;5024108;28;20161;-70
2023/08/13 13:24:53;;;;;;;;;;;26.90;99.90;;;;;;5022652;28;20205;-73
2023/08/13 13:27:20;;;;;;;;;;;26.90;99.90;;;;;;5024081;28;20112;-70
2023/08/13 13:29:46;;;;;;;;;;;26.80;99.90;;;;;;5024658;28;19921;-71
2023/08/13 13:32:13;;;;;;;;;;;26.70;99.90;;;;;;5024292;28;19921;-70
2023/08/13 13:34:40;;;;;;;;;;;26.60;99.90;;;;;;5024251;28;19928;-71
2023/08/13 13:37:07;;;;;;;;;;;26.50;99.90;;;;;;5023640;28;19985;-70
2023/08/13 13:39:35;;;;;;;;;;;26.40;99.90;;;;;;5024280;28;19928;-70
2023/08/13 13:42:02;;;;;;;;;;;26.30;99.90;;;;;;5024568;28;19921;-71
2023/08/13 13:44:28;;;;;;;;;;;26.30;99.90;;;;;;5024067;28;20124;-71
2023/08/13 13:46:55;;;;;;;;;;;26.40;99.90;;;;;;5023427;28;19922;-71
2023/08/13 13:49:21;;;;;;;;;;;26.50;99.90;;;;;;5024440;28;19988;-69
2023/08/13 13:51:48;;;;;;;;;;;26.60;99.90;;;;;;5024451;28;19996;-70
2023/08/13 13:54:15;;;;;;;;;;;26.70;99.90;;;;;;5024366;28;20257;-71
2023/08/13 13:56:43;;;;;;;;;;;26.70;99.90;;;;;;5023917;28;19989;-71
2023/08/13 13:59:09;;;;;;;;;;;26.70;99.90;;;;;;5024078;28;19985;-70
2023/08/13 14:01:36;;;;;;;;;;;27.00;99.90;;;;;;5024184;28;19936;-72
2023/08/13 14:04:02;;;;;;;;;;;27.30;99.90;;;;;;5024303;28;19922;-71
2023/08/13 14:06:29;;;;;;;;;;;27.60;99.90;;;;;;5023490;28;20116;-69
2023/08/13 14:08:56;;;;;;;;;;;27.70;99.90;;;;;;5023828;28;19921;-71
2023/08/13 14:11:22;;;;;;;;;;;27.60;99.90;;;;;;5023985;28;20176;-70
2023/08/13 14:13:50;;;;;;;;;;;27.60;99.90;;;;;;5023878;28;19922;-70
2023/08/13 14:16:17;;;;;;;;;;;27.40;99.90;;;;;;5023459;28;20280;-71